Terminal Aerodrome Forecast
Issued by NWS

Home | Current Version | Previous Version | Text Only | Print | Product List | Glossary On
Versions: 1 2 3 4 5 6 7 8 9 10 11 12 13 14 15 16 17 18
000
FTUS45 KBYZ 221732
TAFLVM
TAF
KLVM 221732Z 2218/2318 21026G30KT P6SM VCSH BKN040 OVC080
     FM230100 23020G30KT P6SM SCT100
     FM230900 25024G35KT P6SM BKN040
     FM231400 25025G34KT P6SM SCT200=

USA.gov is the U.S. government's official web portal to all federal, state and local government web resources and services.